createdAt,value
2018-09-09T16:03:14.177Z,1.03
2018-09-09T16:05:42.369Z,1.10
2018-09-09T16:08:10.535Z,0.90
2018-09-09T16:10:38.706Z,0.93
2018-09-09T16:13:06.603Z,1.50
2018-09-09T16:15:34.519Z,0.80
2018-09-09T16:18:02.650Z,1.13
2018-09-09T16:20:30.857Z,0.97
2018-09-09T16:22:59.026Z,0.87
2018-09-09T16:25:27.160Z,1.00
2018-09-09T16:27:55.335Z,1.00
2018-09-09T16:30:23.479Z,1.03
2018-09-09T16:32:51.640Z,1.00
2018-09-09T16:35:19.559Z,1.33
2018-09-09T16:37:54.355Z,1.13
2018-09-09T16:40:22.274Z,1.00
2018-09-09T16:42:50.427Z,1.00
2018-09-09T16:45:18.688Z,1.40
2018-09-09T16:47:46.814Z,0.90
2018-09-09T16:50:14.743Z,0.97
2018-09-09T16:52:42.935Z,1.33
2018-09-09T16:55:11.067Z,1.20
2018-09-09T16:57:39.276Z,0.70
2018-09-09T17:00:07.652Z,0.90
2018-09-09T17:02:35.588Z,1.03
2018-09-09T17:05:03.803Z,1.60
2018-09-09T17:07:31.988Z,0.80
2018-09-09T17:09:59.924Z,1.00
2018-09-09T17:12:28.086Z,1.67
2018-09-09T17:14:56.257Z,2.10
2018-09-09T17:17:24.405Z,1.53
2018-09-09T17:19:52.624Z,1.00
2018-09-09T17:22:20.795Z,1.33
2018-09-09T17:24:48.992Z,1.27
2018-09-09T17:27:17.148Z,1.60
2018-09-09T17:29:45.059Z,1.00
2018-09-09T17:32:13.233Z,0.80
2018-09-09T17:34:41.480Z,1.17
2018-09-09T17:37:09.376Z,1.40
2018-09-09T17:39:37.508Z,1.07
2018-09-09T17:42:05.656Z,1.10
2018-09-09T17:44:33.813Z,1.07
2018-09-09T17:47:01.971Z,1.80
2018-09-09T17:49:30.141Z,1.00
2018-09-09T17:51:58.051Z,1.30
2018-09-09T17:54:26.223Z,1.20
2018-09-09T17:56:54.151Z,1.43
2018-09-09T17:59:22.328Z,1.63
2018-09-09T18:01:50.507Z,1.77
2018-09-09T18:04:18.658Z,1.40
2018-09-09T18:06:46.814Z,1.50
2018-09-09T18:09:14.980Z,1.50
2018-09-09T18:11:43.156Z,2.03
2018-09-09T18:14:11.294Z,1.50
2018-09-09T18:16:39.427Z,1.67
2018-09-09T18:19:07.599Z,2.43
2018-09-09T18:21:35.594Z,2.00
2018-09-09T18:24:03.505Z,1.90
2018-09-09T18:26:31.416Z,1.43
2018-09-09T18:28:59.317Z,2.27
2018-09-09T18:31:27.224Z,2.10
2018-09-09T18:33:55.159Z,1.60
2018-09-09T18:36:23.359Z,2.00
2018-09-09T18:38:51.576Z,1.90
2018-09-09T18:41:19.652Z,2.37
2018-09-09T18:43:48.001Z,1.40
2018-09-09T18:46:15.938Z,1.53
2018-09-09T18:48:44.098Z,1.73
2018-09-09T18:51:12.251Z,2.73
2018-09-09T18:53:40.396Z,2.57
2018-09-09T18:56:08.557Z,2.43
2018-09-09T18:58:36.471Z,2.27
2018-09-09T19:01:04.692Z,2.90
2018-09-09T19:03:32.665Z,1.83
2018-09-09T19:06:00.865Z,1.80
2018-09-09T19:08:29.030Z,2.00
2018-09-09T19:10:57.039Z,2.33
2018-09-09T19:13:25.196Z,2.20
2018-09-09T19:15:53.156Z,1.53
2018-09-09T19:18:21.116Z,2.07
2018-09-09T19:20:49.092Z,1.93
2018-09-09T19:23:16.995Z,1.40
2018-09-09T19:25:45.209Z,1.50
2018-09-09T19:28:13.145Z,2.10
2018-09-09T19:30:41.325Z,2.20
2018-09-09T19:33:09.301Z,1.93
2018-09-09T19:35:37.494Z,4.00
2018-09-09T19:38:05.416Z,1.97
2018-09-09T19:40:33.550Z,2.17
2018-09-09T19:43:01.763Z,2.27
2018-09-09T19:45:29.708Z,1.90
2018-09-09T19:47:57.977Z,1.80
2018-09-09T19:50:26.258Z,2.23
2018-09-09T19:52:54.416Z,2.67
2018-09-09T19:55:22.879Z,2.00
2018-09-09T19:57:50.828Z,2.03
2018-09-09T20:00:19.348Z,1.80
2018-09-09T20:02:47.576Z,2.50
2018-09-09T20:05:15.520Z,3.37
2018-09-09T20:07:43.483Z,2.53
2018-09-09T20:10:11.426Z,2.47
2018-09-09T20:12:39.618Z,1.90
2018-09-09T20:15:07.913Z,2.30
2018-09-09T20:17:35.771Z,2.10
2018-09-09T20:20:03.972Z,2.20
2018-09-09T20:22:32.133Z,3.10
2018-09-09T20:25:00.075Z,2.13
2018-09-09T20:27:28.253Z,2.77
2018-09-09T20:29:56.191Z,2.13
2018-09-09T20:32:24.380Z,2.87
2018-09-09T20:34:52.601Z,3.03
2018-09-09T20:37:20.985Z,2.87
2018-09-09T20:39:48.954Z,3.33
2018-09-09T20:42:17.101Z,3.37
2018-09-09T20:44:45.283Z,3.40
2018-09-09T20:47:13.482Z,3.83
2018-09-09T20:49:41.399Z,4.37
2018-09-09T20:52:09.621Z,3.43
2018-09-09T20:54:37.809Z,3.37
2018-09-09T20:57:05.736Z,3.37
2018-09-09T20:59:33.915Z,2.60
2018-09-09T21:02:02.081Z,2.53
2018-09-09T21:04:30.001Z,3.33
2018-09-09T21:06:58.191Z,2.60
2018-09-09T21:09:26.401Z,3.40
2018-09-09T21:11:54.624Z,3.67
2018-09-09T21:14:22.784Z,3.17
2018-09-09T21:16:50.972Z,3.23
2018-09-09T21:19:19.156Z,3.03
2018-09-09T21:21:47.079Z,4.70
2018-09-09T21:24:15.310Z,2.53
2018-09-09T21:26:43.524Z,2.33
2018-09-09T21:29:11.467Z,2.33
2018-09-09T21:31:39.604Z,2.23
2018-09-09T21:34:07.882Z,2.33
2018-09-09T21:36:36.452Z,2.80
2018-09-09T21:39:07.375Z,2.60
2018-09-09T21:41:35.524Z,2.60
2018-09-09T21:44:03.685Z,2.47
2018-09-09T21:46:31.850Z,2.73
2018-09-09T21:49:00.093Z,2.60
2018-09-09T21:51:28.044Z,2.87
2018-09-09T21:53:55.961Z,2.63
2018-09-09T21:56:24.192Z,2.93
2018-09-09T21:58:52.299Z,3.40
